Terminal Aerodrome Forecast
Issued by NWS

Home | Current Version | Previous Version | Text Only | Print | Product List | Glossary Off
Versions: 1 2 3 4 5 6 7 8 9 10 11 12 13 14 15 16 17 18 19 20 21 22

000
FTUS43 KPAH 271128
TAFCGI
TAF
KCGI 271128Z 2712/2812 24006KT P6SM SCT050 BKN180
     FM271500 23006KT P6SM -SHRA BKN030 BKN060 OVC130
      TEMPO 2716/2718 5SM -TSRA BR OVC030CB
     FM271900 25006KT P6SM VCSH SCT050 BKN140
      TEMPO 2723/2802 24005KT 5SM -TSRA BR SCT020 BKN040CB
     FM280200 26005KT 2SM SHRA BR BKN008 OVC030
     FM280700 30004KT 1SM BR BKN005=

USA.gov is the U.S. government's official web portal to all federal, state and local government web resources and services.